createdAt,value
2022-12-22T00:02:33.173Z,5.93
2022-12-22T00:05:18.224Z,5.88
2022-12-22T00:08:03.400Z,5.92
2022-12-22T00:10:49.989Z,5.97
2022-12-22T00:13:35.129Z,6.01
2022-12-22T00:16:20.404Z,6.05
2022-12-22T00:19:05.666Z,6.11
2022-12-22T00:21:50.936Z,6.20
2022-12-22T00:24:36.287Z,6.30
2022-12-22T00:27:23.011Z,6.41
2022-12-22T00:30:08.390Z,6.48
2022-12-22T00:32:55.886Z,6.52
2022-12-22T00:35:43.580Z,6.54
2022-12-22T00:38:32.589Z,6.52
2022-12-22T00:41:17.945Z,6.44
2022-12-22T00:44:04.401Z,6.38
2022-12-22T00:46:50.593Z,6.32
2022-12-22T00:49:36.359Z,6.26
2022-12-22T00:52:22.114Z,6.18
2022-12-22T00:55:08.029Z,6.01
2022-12-22T00:57:53.439Z,5.97
2022-12-22T01:00:40.421Z,5.94
2022-12-22T01:03:27.990Z,5.90
2022-12-22T01:06:13.322Z,5.89
2022-12-22T01:08:58.708Z,5.86
2022-12-22T01:11:45.175Z,5.84
2022-12-22T01:14:31.041Z,5.74
2022-12-22T01:17:17.518Z,5.65
2022-12-22T01:20:02.920Z,5.59
2022-12-22T01:22:48.118Z,5.50
2022-12-22T01:25:35.473Z,5.48
2022-12-22T01:28:21.328Z,5.32
2022-12-22T01:31:06.653Z,5.19
2022-12-22T01:33:53.613Z,5.13
2022-12-22T01:36:38.899Z,5.09
2022-12-22T01:39:24.261Z,5.09
2022-12-22T01:42:09.669Z,5.11
2022-12-22T01:44:55.113Z,5.13
2022-12-22T01:47:50.681Z,5.15
2022-12-22T01:50:40.322Z,5.16
2022-12-22T01:53:27.861Z,5.17
2022-12-22T01:56:13.118Z,5.18
2022-12-22T01:59:02.567Z,5.17
2022-12-22T02:01:48.707Z,5.17
2022-12-22T02:04:34.410Z,5.17
2022-12-22T02:07:28.518Z,5.18
2022-12-22T02:10:18.303Z,5.18
2022-12-22T02:13:12.222Z,5.15
2022-12-22T02:16:02.178Z,5.31
2022-12-22T02:18:50.273Z,5.43
2022-12-22T02:21:38.158Z,5.56
2022-12-22T02:24:35.715Z,5.67
2022-12-22T02:27:22.172Z,5.81
2022-12-22T02:30:10.638Z,5.90
2022-12-22T02:33:02.210Z,6.00
2022-12-22T02:35:57.741Z,6.20
2022-12-22T02:38:47.161Z,6.39
2022-12-22T02:41:35.407Z,6.55
2022-12-22T02:44:35.017Z,6.65
2022-12-22T02:47:26.560Z,6.75
2022-12-22T02:50:14.029Z,6.89
2022-12-22T02:53:00.950Z,6.95
2022-12-22T02:55:46.707Z,6.95
2022-12-22T02:58:33.026Z,7.06
2022-12-22T03:01:21.693Z,7.13
2022-12-22T03:04:06.912Z,7.15
2022-12-22T03:06:52.289Z,7.19
2022-12-22T03:09:37.624Z,7.18
2022-12-22T03:12:23.067Z,7.16
2022-12-22T03:15:08.303Z,7.12
2022-12-22T03:17:54.805Z,7.08
2022-12-22T03:20:40.106Z,7.02
2022-12-22T03:23:25.842Z,6.98
2022-12-22T03:25:56.485Z,6.97
2022-12-22T03:28:26.540Z,6.95
2022-12-22T03:30:56.152Z,6.91
2022-12-22T03:33:25.182Z,6.89
2022-12-22T03:35:52.781Z,6.84
2022-12-22T03:38:20.721Z,6.85
2022-12-22T03:40:48.366Z,6.80
2022-12-22T03:43:34.627Z,6.77
2022-12-22T03:46:20.314Z,6.74
2022-12-22T03:49:09.527Z,6.73
2022-12-22T03:51:38.413Z,6.72
2022-12-22T03:54:06.161Z,6.71
2022-12-22T03:56:34.075Z,6.72
2022-12-22T03:59:01.705Z,6.72
2022-12-22T04:01:29.457Z,6.75
2022-12-22T04:03:58.539Z,6.75
2022-12-22T04:06:26.129Z,6.76
2022-12-22T04:08:53.694Z,6.81
2022-12-22T04:11:39.105Z,6.86
2022-12-22T04:14:06.747Z,6.91
2022-12-22T04:16:34.651Z,6.94
2022-12-22T04:19:03.820Z,7.01
2022-12-22T04:21:31.449Z,7.05
2022-12-22T04:23:59.033Z,7.16
2022-12-22T04:26:26.753Z,7.26
2022-12-22T04:28:54.753Z,7.36
2022-12-22T04:31:22.890Z,7.58
2022-12-22T04:33:50.583Z,7.64
2022-12-22T04:36:20.087Z,7.69
2022-12-22T04:38:47.665Z,7.77
2022-12-22T04:41:15.299Z,7.84
2022-12-22T04:43:42.858Z,7.88
2022-12-22T04:46:10.470Z,7.96
2022-12-22T04:48:38.110Z,8.02
2022-12-22T04:51:06.020Z,8.00
2022-12-22T04:53:34.997Z,8.02
2022-12-22T04:56:04.099Z,8.06
2022-12-22T04:58:33.071Z,8.09
2022-12-22T05:01:10.147Z,8.09
2022-12-22T05:03:37.851Z,8.10
2022-12-22T05:06:06.030Z,8.10
2022-12-22T05:08:35.048Z,8.10
2022-12-22T05:11:02.846Z,8.17
2022-12-22T05:13:30.676Z,8.19
2022-12-22T05:16:04.366Z,8.19
2022-12-22T05:18:32.618Z,8.13
2022-12-22T05:21:00.197Z,8.11
2022-12-22T05:23:27.783Z,8.05
2022-12-22T05:25:56.733Z,8.01
2022-12-22T05:28:24.357Z,7.97
2022-12-22T05:30:51.988Z,7.94
2022-12-22T05:33:19.763Z,7.90
2022-12-22T05:35:47.379Z,7.93
2022-12-22T05:38:15.027Z,7.90
2022-12-22T05:40:42.601Z,7.92
2022-12-22T05:43:11.628Z,7.91
2022-12-22T05:45:39.217Z,7.87
2022-12-22T05:48:07.363Z,7.87
2022-12-22T05:50:34.968Z,7.82
2022-12-22T05:53:02.556Z,7.80
2022-12-22T05:55:30.174Z,7.78
2022-12-22T05:58:01.719Z,7.73
2022-12-22T06:00:31.769Z,7.76
2022-12-22T06:02:59.874Z,7.76
2022-12-22T06:05:27.465Z,7.73
2022-12-22T06:07:55.035Z,7.72
2022-12-22T06:10:22.643Z,7.70
2022-12-22T06:12:50.267Z,7.65
2022-12-22T06:15:18.032Z,7.65
2022-12-22T06:17:46.973Z,7.64
2022-12-22T06:20:15.256Z,7.62
2022-12-22T06:22:42.944Z,7.56
2022-12-22T06:25:17.675Z,7.54
2022-12-22T06:27:45.958Z,7.55
2022-12-22T06:30:14.223Z,7.52
2022-12-22T06:32:42.063Z,7.56
2022-12-22T06:35:11.876Z,7.69
2022-12-22T06:37:39.821Z,7.74
2022-12-22T06:40:08.638Z,7.82
2022-12-22T06:42:53.908Z,7.85
2022-12-22T06:45:21.612Z,7.90
2022-12-22T06:47:49.306Z,7.97
2022-12-22T06:50:18.457Z,8.00
2022-12-22T06:52:46.046Z,8.01
2022-12-22T06:55:13.656Z,8.01
2022-12-22T06:57:41.246Z,8.05
2022-12-22T07:00:10.131Z,8.07
2022-12-22T07:02:37.898Z,8.09
2022-12-22T07:05:06.186Z,8.11
2022-12-22T07:07:35.105Z,8.10
2022-12-22T07:10:02.936Z,8.13
2022-12-22T07:12:30.533Z,8.10
2022-12-22T07:14:58.141Z,8.09
2022-12-22T07:17:25.748Z,8.12
2022-12-22T07:19:53.312Z,8.15
2022-12-22T07:22:27.588Z,8.14
2022-12-22T07:24:58.883Z,8.11
2022-12-22T07:27:26.572Z,8.09
2022-12-22T07:29:54.183Z,8.07
2022-12-22T07:32:21.770Z,8.03
2022-12-22T07:34:49.333Z,7.98
2022-12-22T07:37:16.903Z,7.96
2022-12-22T07:39:44.527Z,7.91
2022-12-22T07:42:31.305Z,7.89
2022-12-22T07:44:58.907Z,7.89
2022-12-22T07:47:33.216Z,7.89
2022-12-22T07:50:20.512Z,7.90
2022-12-22T07:52:48.091Z,7.97
2022-12-22T07:55:15.774Z,7.98
2022-12-22T07:57:44.735Z,8.04
2022-12-22T08:00:13.782Z,8.13
2022-12-22T08:02:41.747Z,8.16
2022-12-22T08:05:10.711Z,8.19
2022-12-22T08:07:38.354Z,8.29
2022-12-22T08:10:06.538Z,8.42
2022-12-22T08:12:34.093Z,8.45
2022-12-22T08:15:03.148Z,8.49
2022-12-22T08:17:30.775Z,8.53
2022-12-22T08:19:58.443Z,8.54
2022-12-22T08:22:26.439Z,8.60
2022-12-22T08:24:54.760Z,8.72
2022-12-22T08:27:26.528Z,8.81
2022-12-22T08:29:57.560Z,8.93
2022-12-22T08:32:26.627Z,9.04
2022-12-22T08:34:54.882Z,9.11
2022-12-22T08:37:25.800Z,9.13
2022-12-22T08:39:55.558Z,9.15
2022-12-22T08:42:23.793Z,9.17
2022-12-22T08:44:53.327Z,9.21
2022-12-22T08:47:21.692Z,9.24
2022-12-22T08:49:51.077Z,9.31
2022-12-22T08:52:19.472Z,9.27
2022-12-22T08:54:47.716Z,9.24
2022-12-22T08:57:15.385Z,9.27
2022-12-22T08:59:43.011Z,9.27
2022-12-22T09:02:10.665Z,9.24
2022-12-22T09:04:38.269Z,9.22
2022-12-22T09:07:07.223Z,9.17
2022-12-22T09:09:35.721Z,9.17
2022-12-22T09:12:04.086Z,9.18
2022-12-22T09:14:32.771Z,9.15
2022-12-22T09:17:00.602Z,9.15
2022-12-22T09:19:28.472Z,9.13
2022-12-22T09:21:56.195Z,9.13
2022-12-22T09:24:25.202Z,9.15
2022-12-22T09:26:52.807Z,9.14
2022-12-22T09:29:20.469Z,9.16
2022-12-22T09:31:48.215Z,9.17
2022-12-22T09:34:18.380Z,9.19
2022-12-22T09:36:46.389Z,9.18
2022-12-22T09:39:14.742Z,9.35
2022-12-22T09:41:46.496Z,9.39
2022-12-22T09:44:21.370Z,9.40
2022-12-22T09:46:49.085Z,9.48
2022-12-22T09:49:17.941Z,9.49
2022-12-22T09:51:48.231Z,9.58
2022-12-22T09:54:16.066Z,9.63
2022-12-22T09:56:45.246Z,9.67
2022-12-22T09:59:14.131Z,9.70
2022-12-22T10:01:59.829Z,9.73
2022-12-22T10:04:37.307Z,9.75
2022-12-22T10:07:14.564Z,9.81
2022-12-22T10:09:51.264Z,9.87
2022-12-22T10:12:23.419Z,9.88
2022-12-22T10:14:53.152Z,9.98
2022-12-22T10:17:23.941Z,10.09
2022-12-22T10:19:53.182Z,10.12
2022-12-22T10:22:27.556Z,10.15
2022-12-22T10:24:55.670Z,10.23
2022-12-22T10:27:29.277Z,10.32
2022-12-22T10:30:21.468Z,10.36
2022-12-22T10:33:05.725Z,10.45
2022-12-22T10:35:54.802Z,10.44
2022-12-22T10:38:26.209Z,10.46
2022-12-22T10:41:01.762Z,10.44
2022-12-22T10:43:34.251Z,10.50
2022-12-22T10:46:02.601Z,10.48
2022-12-22T10:48:32.456Z,10.47
2022-12-22T10:51:00.993Z,10.50
2022-12-22T10:53:46.683Z,10.51
2022-12-22T10:56:24.198Z,10.54
2022-12-22T10:58:55.027Z,10.53
2022-12-22T11:01:28.712Z,10.47
2022-12-22T11:03:56.580Z,10.47
2022-12-22T11:06:24.294Z,10.47
2022-12-22T11:08:52.262Z,10.44
2022-12-22T11:11:33.386Z,10.36
2022-12-22T11:14:09.449Z,10.34
2022-12-22T11:16:42.559Z,10.31
2022-12-22T11:19:29.574Z,10.29
2022-12-22T11:22:01.747Z,10.24
2022-12-22T11:24:32.424Z,10.22
2022-12-22T11:27:08.723Z,10.15
2022-12-22T11:30:02.762Z,10.07
2022-12-22T11:32:47.781Z,10.06
2022-12-22T11:35:20.705Z,10.06
2022-12-22T11:37:51.511Z,10.00
2022-12-22T11:40:28.396Z,10.01
2022-12-22T11:43:19.268Z,10.04
2022-12-22T11:46:01.902Z,10.17
2022-12-22T11:48:51.597Z,10.44
2022-12-22T11:51:31.801Z,10.58
2022-12-22T11:54:11.881Z,10.67
2022-12-22T11:56:41.721Z,10.69
2022-12-22T11:59:21.249Z,10.65
2022-12-22T12:02:19.129Z,10.56
2022-12-22T12:05:22.011Z,10.53
2022-12-22T12:07:52.314Z,10.46
2022-12-22T12:10:25.356Z,10.47
2022-12-22T12:12:59.833Z,10.40
2022-12-22T12:15:32.250Z,10.46
2022-12-22T12:18:27.711Z,10.43
2022-12-22T12:21:02.264Z,10.42
2022-12-22T12:23:53.705Z,10.40
2022-12-22T12:26:24.877Z,10.42
2022-12-22T12:29:02.577Z,10.43
2022-12-22T12:31:33.914Z,10.45
2022-12-22T12:34:03.319Z,10.44
2022-12-22T12:36:33.073Z,10.45
2022-12-22T12:39:07.972Z,10.47
2022-12-22T12:41:42.146Z,10.50
2022-12-22T12:44:13.528Z,10.50
2022-12-22T12:47:07.999Z,10.49
2022-12-22T12:50:21.286Z,10.48
2022-12-22T12:53:07.905Z,10.49
2022-12-22T12:55:52.893Z,10.49
2022-12-22T12:58:49.106Z,10.46
2022-12-22T13:01:56.123Z,10.45
2022-12-22T13:05:10.509Z,10.44
2022-12-22T13:08:08.657Z,10.45
2022-12-22T13:10:38.591Z,10.41
2022-12-22T13:13:06.593Z,10.42
2022-12-22T13:15:35.590Z,10.40
2022-12-22T13:18:04.171Z,10.37
2022-12-22T13:20:34.949Z,10.41
2022-12-22T13:23:05.258Z,10.47
2022-12-22T13:25:42.506Z,10.45
2022-12-22T13:28:16.093Z,10.45
2022-12-22T13:30:47.408Z,10.41
2022-12-22T13:33:17.360Z,10.45
2022-12-22T13:35:49.240Z,10.47
2022-12-22T13:38:29.139Z,10.49
2022-12-22T13:40:58.860Z,10.50
2022-12-22T13:43:28.084Z,10.51
2022-12-22T13:45:56.822Z,10.50
2022-12-22T13:48:29.019Z,10.49
2022-12-22T13:50:56.869Z,10.49
2022-12-22T13:56:23.775Z,10.48
2022-12-22T13:58:54.642Z,10.45
2022-12-22T14:01:22.267Z,10.43
2022-12-22T14:04:01.358Z,10.40
2022-12-22T14:06:31.883Z,10.36
2022-12-22T14:09:14.349Z,10.35
2022-12-22T14:11:51.072Z,10.32
2022-12-22T14:14:23.402Z,10.34
2022-12-22T14:16:52.524Z,10.33
2022-12-22T14:19:21.708Z,10.28
2022-12-22T14:21:52.176Z,10.27
2022-12-22T14:24:22.754Z,10.25
2022-12-22T14:26:52.144Z,10.26
2022-12-22T14:29:22.554Z,10.28
2022-12-22T14:31:57.335Z,10.27
2022-12-22T14:34:26.814Z,10.30
2022-12-22T14:36:54.488Z,10.26
2022-12-22T14:39:23.870Z,10.26
2022-12-22T14:41:54.432Z,10.26
2022-12-22T14:44:23.871Z,10.23
2022-12-22T14:47:06.552Z,10.22
2022-12-22T14:49:34.532Z,10.15
2022-12-22T14:52:07.764Z,10.16
2022-12-22T14:54:35.570Z,10.15
2022-12-22T14:57:15.725Z,10.21
2022-12-22T14:59:59.418Z,10.24
2022-12-22T15:02:35.020Z,10.22
2022-12-22T15:05:17.797Z,10.19
2022-12-22T15:08:07.472Z,10.19
2022-12-22T15:10:39.205Z,10.18
2022-12-22T15:13:13.531Z,10.16
2022-12-22T15:15:41.121Z,10.15
2022-12-22T15:18:13.665Z,10.16
2022-12-22T15:20:41.398Z,10.15
2022-12-22T15:23:12.698Z,10.11
2022-12-22T15:25:40.406Z,10.09
2022-12-22T15:28:09.471Z,10.05
2022-12-22T15:30:37.320Z,10.00
2022-12-22T15:33:05.249Z,9.99
2022-12-22T15:35:34.202Z,9.96
2022-12-22T15:38:02.444Z,9.91
2022-12-22T15:40:30.142Z,9.93
2022-12-22T15:42:57.739Z,9.92
2022-12-22T15:45:26.815Z,9.93
2022-12-22T15:47:55.618Z,9.92
2022-12-22T15:50:25.164Z,9.87
2022-12-22T15:52:54.215Z,9.81
2022-12-22T15:55:22.312Z,9.80
2022-12-22T15:57:51.159Z,9.80
2022-12-22T16:00:20.385Z,9.74
2022-12-22T16:02:49.739Z,9.75
2022-12-22T16:05:18.051Z,9.76
2022-12-22T16:07:46.030Z,9.69
2022-12-22T16:10:23.019Z,9.62
2022-12-22T16:12:54.578Z,9.60
2022-12-22T16:15:22.952Z,9.57
2022-12-22T16:17:53.040Z,9.55
2022-12-22T16:20:21.071Z,9.53
2022-12-22T16:22:50.023Z,9.51
2022-12-22T16:25:19.335Z,9.55
2022-12-22T16:27:49.510Z,9.55
2022-12-22T16:30:21.203Z,9.54
2022-12-22T16:32:48.990Z,9.55
2022-12-22T16:35:20.737Z,9.56
2022-12-22T16:37:49.791Z,9.59
2022-12-22T16:40:19.093Z,9.61
2022-12-22T16:45:37.098Z,9.58
2022-12-22T16:48:07.331Z,9.54
2022-12-22T16:50:36.655Z,9.56
2022-12-22T16:53:06.325Z,9.56
2022-12-22T16:55:35.882Z,9.57
2022-12-22T16:58:12.714Z,9.57
2022-12-22T17:00:41.983Z,9.54
2022-12-22T17:03:14.797Z,9.53
2022-12-22T17:05:45.776Z,9.53
2022-12-22T17:08:21.105Z,9.53
2022-12-22T17:10:48.768Z,9.54
2022-12-22T17:13:16.781Z,9.57
2022-12-22T17:15:44.365Z,9.54
2022-12-22T17:18:16.801Z,9.56
2022-12-22T17:20:46.515Z,9.58
2022-12-22T17:23:27.400Z,9.60
2022-12-22T17:25:54.966Z,9.56
2022-12-22T17:28:22.586Z,9.55
2022-12-22T17:30:50.522Z,9.56
2022-12-22T17:33:18.557Z,9.56
2022-12-22T17:35:48.189Z,9.52
2022-12-22T17:38:16.856Z,9.53
2022-12-22T17:40:44.914Z,9.51
2022-12-22T17:43:14.837Z,9.46
2022-12-22T17:45:42.781Z,9.45
2022-12-22T17:48:10.370Z,9.44
2022-12-22T17:50:38.063Z,9.40
2022-12-22T17:53:07.365Z,9.39
2022-12-22T17:56:07.323Z,9.37
2022-12-22T17:58:22.790Z,9.34
2022-12-22T18:00:50.317Z,9.33
2022-12-22T18:03:18.156Z,9.31
2022-12-22T18:05:48.131Z,9.26
2022-12-22T18:08:19.964Z,9.25
2022-12-22T18:10:48.324Z,9.21
2022-12-22T18:13:18.340Z,9.16
2022-12-22T18:15:46.062Z,9.18
2022-12-22T18:18:14.952Z,9.19
2022-12-22T18:20:43.434Z,9.16
2022-12-22T18:23:16.550Z,9.15
2022-12-22T18:25:45.531Z,9.12
2022-12-22T18:28:15.602Z,9.05
2022-12-22T18:30:43.290Z,9.06
2022-12-22T18:33:10.910Z,9.05
2022-12-22T18:35:39.281Z,9.02
2022-12-22T18:38:07.521Z,9.02
2022-12-22T18:40:36.862Z,8.99
2022-12-22T18:43:10.283Z,8.97
2022-12-22T18:45:38.051Z,8.93
2022-12-22T18:48:05.946Z,8.93
2022-12-22T18:50:34.885Z,8.92
2022-12-22T18:53:04.662Z,8.92
2022-12-22T18:55:33.628Z,8.86
2022-12-22T18:58:01.341Z,8.83
2022-12-22T19:00:31.988Z,8.80
2022-12-22T19:03:01.088Z,8.78
2022-12-22T19:05:30.359Z,8.82
2022-12-22T19:07:58.840Z,8.83
2022-12-22T19:10:30.263Z,8.82
2022-12-22T19:12:58.271Z,8.81
2022-12-22T19:15:30.727Z,8.84
2022-12-22T19:17:58.564Z,8.86
2022-12-22T19:20:26.696Z,8.87
2022-12-22T19:22:54.277Z,8.91
2022-12-22T19:25:24.730Z,8.90
2022-12-22T19:27:53.847Z,8.88
2022-12-22T19:30:23.007Z,8.86
2022-12-22T19:32:56.459Z,8.92
2022-12-22T19:35:25.430Z,8.94
2022-12-22T19:37:54.073Z,8.94
2022-12-22T19:40:23.475Z,8.96
2022-12-22T19:42:52.972Z,8.98
2022-12-22T19:45:22.398Z,9.03
2022-12-22T19:47:51.758Z,9.05
2022-12-22T19:50:20.787Z,9.08
2022-12-22T19:52:48.335Z,9.12
2022-12-22T19:55:16.327Z,9.11
2022-12-22T19:57:44.712Z,9.08
2022-12-22T20:00:17.843Z,9.14
2022-12-22T20:02:46.120Z,9.13
2022-12-22T20:05:30.271Z,9.17
2022-12-22T20:08:00.237Z,9.21
2022-12-22T20:10:29.396Z,9.18
2022-12-22T20:12:58.912Z,9.17
2022-12-22T20:15:28.051Z,9.17
2022-12-22T20:17:57.441Z,9.23
2022-12-22T20:20:29.824Z,9.24
2022-12-22T20:22:58.520Z,9.22
2022-12-22T20:25:27.980Z,9.20
2022-12-22T20:27:56.814Z,9.18
2022-12-22T20:30:26.394Z,9.19
2022-12-22T20:32:54.517Z,9.19
2022-12-22T20:35:22.406Z,9.16
2022-12-22T20:37:51.466Z,9.14
2022-12-22T20:40:24.726Z,9.13
2022-12-22T20:42:52.897Z,9.10
2022-12-22T20:45:22.079Z,9.07
2022-12-22T20:47:50.291Z,9.05
2022-12-22T20:50:20.692Z,9.04
2022-12-22T20:52:48.720Z,9.06
2022-12-22T20:55:19.184Z,9.06
2022-12-22T20:57:47.337Z,9.06
2022-12-22T21:00:20.552Z,9.07
2022-12-22T21:02:48.214Z,9.06
2022-12-22T21:05:16.018Z,9.12
2022-12-22T21:07:44.934Z,9.10
2022-12-22T21:10:18.519Z,9.11
2022-12-22T21:12:46.277Z,9.11
2022-12-22T21:15:19.054Z,9.09
2022-12-22T21:17:49.040Z,9.09
2022-12-22T21:20:21.112Z,9.11
2022-12-22T21:22:48.727Z,9.11
2022-12-22T21:25:17.849Z,9.09
2022-12-22T21:27:47.904Z,9.07
2022-12-22T21:30:18.113Z,9.06
2022-12-22T21:32:46.219Z,9.05
2022-12-22T21:35:15.465Z,9.03
2022-12-22T21:37:44.764Z,8.99
2022-12-22T21:40:20.299Z,8.98
2022-12-22T21:42:47.950Z,8.99
2022-12-22T21:45:16.786Z,8.98
2022-12-22T21:47:44.381Z,8.97
2022-12-22T21:50:19.611Z,8.97
2022-12-22T21:52:50.203Z,8.94
2022-12-22T21:55:25.647Z,8.93
2022-12-22T21:57:53.704Z,8.86
2022-12-22T22:00:22.378Z,8.83
2022-12-22T22:02:50.667Z,8.81
2022-12-22T22:05:27.184Z,8.80
2022-12-22T22:07:55.085Z,8.78
2022-12-22T22:10:26.020Z,8.71
2022-12-22T22:12:54.115Z,8.68
2022-12-22T22:15:23.879Z,8.67
2022-12-22T22:17:51.914Z,8.64
2022-12-22T22:20:21.155Z,8.65
2022-12-22T22:22:50.590Z,8.64
2022-12-22T22:25:19.587Z,8.59
2022-12-22T22:27:49.027Z,8.59
2022-12-22T22:30:18.334Z,8.56
2022-12-22T22:32:45.955Z,8.54
2022-12-22T22:35:14.890Z,8.55
2022-12-22T22:37:42.592Z,8.53
2022-12-22T22:40:12.523Z,8.49
2022-12-22T22:42:40.175Z,8.50
2022-12-22T22:45:11.312Z,8.50
2022-12-22T22:47:38.875Z,8.46
2022-12-22T22:50:08.821Z,8.41
2022-12-22T22:52:36.642Z,8.41
2022-12-22T22:55:04.428Z,8.40
2022-12-22T22:57:32.032Z,8.35
2022-12-22T22:59:59.578Z,8.35
2022-12-22T23:02:28.672Z,8.33
2022-12-22T23:04:56.364Z,8.32
2022-12-22T23:07:24.010Z,8.32
2022-12-22T23:09:51.573Z,8.29
2022-12-22T23:12:19.165Z,8.25
2022-12-22T23:14:46.750Z,8.23
2022-12-22T23:17:14.370Z,8.20
2022-12-22T23:19:43.351Z,8.18
2022-12-22T23:22:10.938Z,8.13
2022-12-22T23:24:38.685Z,8.10
2022-12-22T23:27:06.229Z,8.04
2022-12-22T23:29:33.843Z,8.00
2022-12-22T23:32:01.502Z,7.98
2022-12-22T23:34:29.159Z,7.94
2022-12-22T23:36:58.092Z,7.89
2022-12-22T23:39:25.815Z,7.82
2022-12-22T23:41:53.392Z,7.71
2022-12-22T23:44:20.993Z,7.66
2022-12-22T23:46:48.690Z,7.64
2022-12-22T23:49:16.283Z,7.55
2022-12-22T23:51:43.805Z,7.50
2022-12-22T23:54:12.756Z,7.47
2022-12-22T23:56:40.337Z,7.49
2022-12-22T23:59:08.671Z,7.46
